CheckWX is a tool to help pilots better visualize weather data.  It is not intended as a substitute for an official pre-flight weather briefing.

21:13:16 UTC

KBOS TAF
General Edward Lawrence Logan International Airport
Boston, Massachusetts, USA
KBOS 192002Z 1920/2024 10010KT P6SM SKC FM200100 16005KT P6SM FEW250 FM200200 21004KT P6SM SKC FM200900 27006KT P6SM SKC FM201600 28007KT P6SM SCT150

Sep-19@
20:00 UTC

Sep-19 @ 20:00 UTC

Sep-20@
01:00 UTC

Sep-20 @ 01:00 UTC

KBOS 192002Z 1920/2024 10010KT P6SM SKC
Wind
  • 100° at 10 KTS
Cloud Levels
  • Clear skies

Sep-20@
01:00 UTC

Sep-20 @ 01:00 UTC

Sep-20@
02:00 UTC

Sep-20 @ 02:00 UTC

FM200100 16005KT P6SM FEW250

From

From Standard forecast or significant change

Wind
  • 160° at 5 KTS
Cloud Levels
  • Few at 25,000' AGL

Sep-20@
02:00 UTC

Sep-20 @ 02:00 UTC

Sep-20@
09:00 UTC

Sep-20 @ 09:00 UTC

FM200200 21004KT P6SM SKC

From

From Standard forecast or significant change

Wind
  • 210° at 4 KTS
Cloud Levels
  • Clear skies

Sep-20@
09:00 UTC

Sep-20 @ 09:00 UTC

Sep-20@
16:00 UTC

Sep-20 @ 16:00 UTC

FM200900 27006KT P6SM SKC

From

From Standard forecast or significant change

Wind
  • 270° at 6 KTS
Cloud Levels
  • Clear skies

Sep-20@
16:00 UTC

Sep-20 @ 16:00 UTC

Sep-21@
00:00 UTC

Sep-21 @ 00:00 UTC

FM201600 28007KT P6SM SCT150

From

From Standard forecast or significant change

Wind
  • 280° at 7 KTS
Cloud Levels
  • Scattered at 15,000' AGL